Terminal Aerodrome Forecast
Issued by NWS

Current Version | Previous Version | Text Only | Print | Product List | Glossary On
Versions: 1 2 3 4 5 6 7 8 9 10 11 12 13 14 15 16 17 18 19 20 21 22 23 24 25 26 27 28 29 30 31 32 33 34 35 36 37 38 39 40 41 42 43 44 45
000
FTAK31 PAFA 031122
TAFASC
TAF
PASC 031122Z 0312/0412 09022KT 2SM BLSN SCT004 OVC200
     FM032100 13015KT 3SM BLSN BR SCT003 OVC100
     FM040400 23014KT 5SM BR VCSH OVC100=

USA.gov is the U.S. government's official web portal to all federal, state and local government web resources and services.